sensor_id;sensor_type;location;lat;lon;timestamp;pressure;altitude;pressure_sealevel;temperature;humidity
24031;BME280;12240;51.142;22.486;2022-07-23T00:02:15;99308.19;;;20.67;100.00
24031;BME280;12240;51.142;22.486;2022-07-23T00:04:43;99287.72;;;20.47;100.00
24031;BME280;12240;51.142;22.486;2022-07-23T00:07:11;99275.13;;;20.34;100.00
24031;BME280;12240;51.142;22.486;2022-07-23T00:09:40;99321.00;;;20.47;100.00
24031;BME280;12240;51.142;22.486;2022-07-23T00:12:08;99302.00;;;20.23;100.00
24031;BME280;12240;51.142;22.486;2022-07-23T00:14:36;99273.88;;;19.86;100.00
24031;BME280;12240;51.142;22.486;2022-07-23T00:17:04;99316.28;;;19.79;100.00
24031;BME280;12240;51.142;22.486;2022-07-23T00:19:32;99298.28;;;19.47;100.00
24031;BME280;12240;51.142;22.486;2022-07-23T00:22:01;99321.75;;;19.59;100.00
24031;BME280;12240;51.142;22.486;2022-07-23T00:24:29;99331.31;;;19.62;100.00
24031;BME280;12240;51.142;22.486;2022-07-23T00:26:58;99290.81;;;19.29;100.00
24031;BME280;12240;51.142;22.486;2022-07-23T00:29:26;99327.78;;;19.55;100.00
24031;BME280;12240;51.142;22.486;2022-07-23T00:31:54;99328.38;;;19.70;100.00
24031;BME280;12240;51.142;22.486;2022-07-23T00:34:22;99332.91;;;19.83;100.00
24031;BME280;12240;51.142;22.486;2022-07-23T00:36:51;99326.44;;;19.90;100.00
24031;BME280;12240;51.142;22.486;2022-07-23T00:39:21;99341.13;;;20.07;100.00
24031;BME280;12240;51.142;22.486;2022-07-23T00:41:51;99321.56;;;20.12;100.00
24031;BME280;12240;51.142;22.486;2022-07-23T00:44:24;99330.44;;;20.32;100.00
24031;BME280;12240;51.142;22.486;2022-07-23T00:46:55;99303.00;;;20.28;100.00
24031;BME280;12240;51.142;22.486;2022-07-23T00:49:27;99297.19;;;20.25;100.00
24031;BME280;12240;51.142;22.486;2022-07-23T00:51:57;99340.72;;;20.54;100.00
24031;BME280;12240;51.142;22.486;2022-07-23T00:54:28;99291.53;;;20.39;100.00
24031;BME280;12240;51.142;22.486;2022-07-23T00:56:56;99260.81;;;20.14;100.00
24031;BME280;12240;51.142;22.486;2022-07-23T00:59:25;99330.34;;;20.51;100.00
24031;BME280;12240;51.142;22.486;2022-07-23T01:01:53;99320.03;;;20.35;100.00
24031;BME280;12240;51.142;22.486;2022-07-23T01:04:21;99332.91;;;20.40;100.00
24031;BME280;12240;51.142;22.486;2022-07-23T01:06:50;99326.03;;;20.44;100.00
24031;BME280;12240;51.142;22.486;2022-07-23T01:09:18;99337.69;;;20.44;100.00
24031;BME280;12240;51.142;22.486;2022-07-23T01:11:46;99332.13;;;20.64;100.00
24031;BME280;12240;51.142;22.486;2022-07-23T01:14:18;99329.53;;;20.82;100.00
24031;BME280;12240;51.142;22.486;2022-07-23T01:16:48;99317.75;;;20.70;100.00
24031;BME280;12240;51.142;22.486;2022-07-23T01:19:17;99301.16;;;20.60;100.00
24031;BME280;12240;51.142;22.486;2022-07-23T01:21:50;99326.66;;;20.77;100.00
24031;BME280;12240;51.142;22.486;2022-07-23T01:24:19;99327.84;;;20.81;100.00
24031;BME280;12240;51.142;22.486;2022-07-23T01:26:59;99332.59;;;20.17;100.00
24031;BME280;12240;51.142;22.486;2022-07-23T01:29:27;99333.94;;;19.88;100.00
24031;BME280;12240;51.142;22.486;2022-07-23T01:31:59;99317.19;;;19.47;100.00
24031;BME280;12240;51.142;22.486;2022-07-23T01:34:27;99313.69;;;19.33;100.00
24031;BME280;12240;51.142;22.486;2022-07-23T01:36:56;99313.66;;;19.20;100.00
24031;BME280;12240;51.142;22.486;2022-07-23T01:39:24;99325.53;;;19.19;100.00
24031;BME280;12240;51.142;22.486;2022-07-23T01:41:53;99321.56;;;19.15;100.00
24031;BME280;12240;51.142;22.486;2022-07-23T01:44:22;99331.94;;;19.18;100.00
24031;BME280;12240;51.142;22.486;2022-07-23T01:46:50;99324.66;;;19.25;100.00
24031;BME280;12240;51.142;22.486;2022-07-23T01:49:20;99329.66;;;19.28;100.00
24031;BME280;12240;51.142;22.486;2022-07-23T01:52:07;99326.31;;;19.26;100.00
24031;BME280;12240;51.142;22.486;2022-07-23T01:54:44;99254.31;;;18.62;100.00
24031;BME280;12240;51.142;22.486;2022-07-23T01:57:13;99331.75;;;19.00;100.00
24031;BME280;12240;51.142;22.486;2022-07-23T01:59:41;99331.31;;;18.97;100.00
24031;BME280;12240;51.142;22.486;2022-07-23T02:02:10;99335.06;;;18.89;100.00
24031;BME280;12240;51.142;22.486;2022-07-23T02:04:38;99298.31;;;18.69;100.00
24031;BME280;12240;51.142;22.486;2022-07-23T02:07:07;99318.22;;;18.81;100.00
24031;BME280;12240;51.142;22.486;2022-07-23T02:09:35;99335.25;;;18.81;100.00
24031;BME280;12240;51.142;22.486;2022-07-23T02:12:05;99326.31;;;18.74;100.00
24031;BME280;12240;51.142;22.486;2022-07-23T02:14:33;99343.94;;;18.77;100.00
24031;BME280;12240;51.142;22.486;2022-07-23T02:17:05;99330.25;;;18.72;100.00
24031;BME280;12240;51.142;22.486;2022-07-23T02:19:35;99264.81;;;18.24;100.00
24031;BME280;12240;51.142;22.486;2022-07-23T02:22:04;99289.91;;;18.31;100.00
24031;BME280;12240;51.142;22.486;2022-07-23T02:24:32;99344.31;;;18.47;100.00
24031;BME280;12240;51.142;22.486;2022-07-23T02:27:00;99298.34;;;18.15;100.00
24031;BME280;12240;51.142;22.486;2022-07-23T02:29:29;99301.88;;;18.09;100.00
24031;BME280;12240;51.142;22.486;2022-07-23T02:31:57;99303.31;;;18.11;100.00
24031;BME280;12240;51.142;22.486;2022-07-23T02:34:25;99339.84;;;18.27;100.00
24031;BME280;12240;51.142;22.486;2022-07-23T02:36:53;99260.94;;;17.86;100.00
24031;BME280;12240;51.142;22.486;2022-07-23T02:39:23;99339.50;;;18.36;100.00
24031;BME280;12240;51.142;22.486;2022-07-23T02:41:51;99335.75;;;18.37;100.00
24031;BME280;12240;51.142;22.486;2022-07-23T02:44:19;99339.44;;;18.30;100.00
24031;BME280;12240;51.142;22.486;2022-07-23T02:46:51;99338.00;;;18.27;100.00
24031;BME280;12240;51.142;22.486;2022-07-23T02:49:19;99326.78;;;18.17;100.00
24031;BME280;12240;51.142;22.486;2022-07-23T02:51:50;99306.41;;;18.02;100.00
24031;BME280;12240;51.142;22.486;2022-07-23T02:54:18;99341.91;;;18.18;100.00
24031;BME280;12240;51.142;22.486;2022-07-23T02:56:47;99334.47;;;18.27;100.00
24031;BME280;12240;51.142;22.486;2022-07-23T02:59:15;99343.63;;;18.32;100.00
24031;BME280;12240;51.142;22.486;2022-07-23T03:01:44;99283.81;;;18.09;100.00
24031;BME280;12240;51.142;22.486;2022-07-23T03:04:12;99330.69;;;18.21;100.00
24031;BME280;12240;51.142;22.486;2022-07-23T03:06:42;99331.97;;;18.25;100.00
24031;BME280;12240;51.142;22.486;2022-07-23T03:09:11;99331.13;;;18.25;100.00
24031;BME280;12240;51.142;22.486;2022-07-23T03:11:39;99304.56;;;18.15;100.00
24031;BME280;12240;51.142;22.486;2022-07-23T03:14:07;99313.53;;;18.22;100.00
24031;BME280;12240;51.142;22.486;2022-07-23T03:16:36;99346.63;;;18.57;100.00
24031;BME280;12240;51.142;22.486;2022-07-23T03:19:05;99342.28;;;18.69;100.00
24031;BME280;12240;51.142;22.486;2022-07-23T03:21:33;99345.41;;;18.73;100.00
24031;BME280;12240;51.142;22.486;2022-07-23T03:24:02;99405.63;;;18.86;100.00
24031;BME280;12240;51.142;22.486;2022-07-23T03:26:30;99446.09;;;18.93;100.00
24031;BME280;12240;51.142;22.486;2022-07-23T03:28:58;99460.44;;;18.93;100.00
24031;BME280;12240;51.142;22.486;2022-07-23T03:31:31;99438.38;;;18.77;100.00
24031;BME280;12240;51.142;22.486;2022-07-23T03:34:00;99605.75;;;19.03;100.00
24031;BME280;12240;51.142;22.486;2022-07-23T03:36:29;99369.09;;;19.10;100.00
24031;BME280;12240;51.142;22.486;2022-07-23T03:38:58;99366.63;;;19.08;100.00
24031;BME280;12240;51.142;22.486;2022-07-23T03:41:28;99347.09;;;19.06;100.00
24031;BME280;12240;51.142;22.486;2022-07-23T03:43:57;99390.69;;;19.10;100.00
24031;BME280;12240;51.142;22.486;2022-07-23T03:46:28;99378.63;;;19.06;100.00
24031;BME280;12240;51.142;22.486;2022-07-23T03:48:57;99510.94;;;19.19;100.00
24031;BME280;12240;51.142;22.486;2022-07-23T03:51:26;99404.81;;;19.05;100.00
24031;BME280;12240;51.142;22.486;2022-07-23T03:53:54;99422.94;;;19.31;100.00
24031;BME280;12240;51.142;22.486;2022-07-23T03:56:25;99427.50;;;19.50;100.00
24031;BME280;12240;51.142;22.486;2022-07-23T03:58:53;99438.94;;;19.58;100.00
24031;BME280;12240;51.142;22.486;2022-07-23T04:01:22;99452.63;;;19.37;100.00
24031;BME280;12240;51.142;22.486;2022-07-23T04:03:50;99526.41;;;19.77;100.00
24031;BME280;12240;51.142;22.486;2022-07-23T04:06:19;99363.28;;;19.71;100.00
24031;BME280;12240;51.142;22.486;2022-07-23T04:08:48;99383.81;;;19.92;100.00
24031;BME280;12240;51.142;22.486;2022-07-23T04:11:16;99391.25;;;20.10;100.00
24031;BME280;12240;51.142;22.486;2022-07-23T04:13:44;99403.91;;;20.29;100.00
24031;BME280;12240;51.142;22.486;2022-07-23T04:16:14;99405.91;;;20.40;100.00
24031;BME280;12240;51.142;22.486;2022-07-23T04:18:42;99421.06;;;20.54;100.00
24031;BME280;12240;51.142;22.486;2022-07-23T04:21:16;99367.03;;;20.41;100.00
24031;BME280;12240;51.142;22.486;2022-07-23T04:23:45;99490.19;;;20.94;100.00
24031;BME280;12240;51.142;22.486;2022-07-23T04:26:14;99396.31;;;21.19;100.00
24031;BME280;12240;51.142;22.486;2022-07-23T04:28:46;99379.56;;;21.53;100.00
24031;BME280;12240;51.142;22.486;2022-07-23T04:31:15;99386.69;;;21.72;100.00
24031;BME280;12240;51.142;22.486;2022-07-23T04:33:43;99348.66;;;21.85;100.00
24031;BME280;12240;51.142;22.486;2022-07-23T04:36:12;99338.41;;;22.06;100.00
24031;BME280;12240;51.142;22.486;2022-07-23T04:38:40;99652.41;;;22.53;100.00
24031;BME280;12240;51.142;22.486;2022-07-23T04:41:09;99392.56;;;22.66;100.00
24031;BME280;12240;51.142;22.486;2022-07-23T04:43:39;99450.84;;;22.93;100.00
24031;BME280;12240;51.142;22.486;2022-07-23T04:46:07;99401.22;;;23.16;100.00
24031;BME280;12240;51.142;22.486;2022-07-23T04:48:43;99399.66;;;23.38;100.00
24031;BME280;12240;51.142;22.486;2022-07-23T04:51:12;99405.81;;;23.68;100.00
24031;BME280;12240;51.142;22.486;2022-07-23T04:53:40;99396.13;;;23.95;100.00
24031;BME280;12240;51.142;22.486;2022-07-23T04:56:09;99392.44;;;24.25;100.00
24031;BME280;12240;51.142;22.486;2022-07-23T04:58:37;99420.31;;;24.43;100.00
24031;BME280;12240;51.142;22.486;2022-07-23T05:01:07;99371.19;;;24.50;100.00
24031;BME280;12240;51.142;22.486;2022-07-23T05:03:37;99409.06;;;24.91;100.00
24031;BME280;12240;51.142;22.486;2022-07-23T05:06:05;99382.31;;;24.88;100.00
24031;BME280;12240;51.142;22.486;2022-07-23T05:08:33;99446.28;;;25.42;100.00
24031;BME280;12240;51.142;22.486;2022-07-23T05:11:03;99363.50;;;25.64;100.00
24031;BME280;12240;51.142;22.486;2022-07-23T05:13:32;99322.50;;;25.59;100.00
24031;BME280;12240;51.142;22.486;2022-07-23T05:16:00;99367.72;;;26.10;100.00
24031;BME280;12240;51.142;22.486;2022-07-23T05:18:28;99334.56;;;26.01;100.00
24031;BME280;12240;51.142;22.486;2022-07-23T05:20:57;99338.50;;;26.32;100.00
24031;BME280;12240;51.142;22.486;2022-07-23T05:23:25;99369.19;;;26.61;100.00
24031;BME280;12240;51.142;22.486;2022-07-23T05:25:54;99372.72;;;26.61;100.00
24031;BME280;12240;51.142;22.486;2022-07-23T05:28:22;99383.28;;;27.01;100.00
24031;BME280;12240;51.142;22.486;2022-07-23T05:30:52;99396.75;;;27.07;100.00
24031;BME280;12240;51.142;22.486;2022-07-23T05:33:22;99374.91;;;27.12;100.00
24031;BME280;12240;51.142;22.486;2022-07-23T05:35:50;99366.19;;;27.42;100.00
24031;BME280;12240;51.142;22.486;2022-07-23T05:38:26;99369.81;;;27.47;100.00
24031;BME280;12240;51.142;22.486;2022-07-23T05:40:58;99370.81;;;27.73;100.00
24031;BME280;12240;51.142;22.486;2022-07-23T05:43:27;99338.69;;;27.53;100.00
24031;BME280;12240;51.142;22.486;2022-07-23T05:45:57;99378.22;;;27.78;100.00
24031;BME280;12240;51.142;22.486;2022-07-23T05:48:26;99371.53;;;27.95;100.00
24031;BME280;12240;51.142;22.486;2022-07-23T05:51:06;99367.53;;;28.13;100.00
24031;BME280;12240;51.142;22.486;2022-07-23T05:53:35;99331.19;;;28.27;100.00
24031;BME280;12240;51.142;22.486;2022-07-23T05:56:29;99368.03;;;28.56;100.00
24031;BME280;12240;51.142;22.486;2022-07-23T05:58:57;99367.25;;;28.81;100.00
24031;BME280;12240;51.142;22.486;2022-07-23T06:01:26;99376.88;;;28.94;100.00
24031;BME280;12240;51.142;22.486;2022-07-23T06:04:07;99366.53;;;29.31;100.00
24031;BME280;12240;51.142;22.486;2022-07-23T06:06:38;99349.81;;;29.37;100.00
24031;BME280;12240;51.142;22.486;2022-07-23T06:09:10;99352.28;;;29.54;100.00
24031;BME280;12240;51.142;22.486;2022-07-23T06:11:41;99378.06;;;29.83;100.00
24031;BME280;12240;51.142;22.486;2022-07-23T06:14:10;99383.50;;;30.13;100.00
24031;BME280;12240;51.142;22.486;2022-07-23T06:16:52;99379.34;;;30.26;100.00
24031;BME280;12240;51.142;22.486;2022-07-23T06:19:22;99386.75;;;30.35;100.00
24031;BME280;12240;51.142;22.486;2022-07-23T06:21:50;99383.44;;;30.38;100.00
24031;BME280;12240;51.142;22.486;2022-07-23T06:24:18;99379.31;;;30.46;100.00
24031;BME280;12240;51.142;22.486;2022-07-23T06:26:49;99359.25;;;30.40;100.00
24031;BME280;12240;51.142;22.486;2022-07-23T06:29:17;99380.06;;;30.61;100.00
24031;BME280;12240;51.142;22.486;2022-07-23T06:31:45;99335.72;;;30.73;99.37
24031;BME280;12240;51.142;22.486;2022-07-23T06:34:15;99383.63;;;31.11;98.80
24031;BME280;12240;51.142;22.486;2022-07-23T06:36:43;99353.41;;;31.06;99.42
24031;BME280;12240;51.142;22.486;2022-07-23T06:39:12;99428.50;;;31.50;96.80
24031;BME280;12240;51.142;22.486;2022-07-23T06:41:46;99396.13;;;31.37;89.25
24031;BME280;12240;51.142;22.486;2022-07-23T06:44:18;99350.59;;;31.16;94.93
24031;BME280;12240;51.142;22.486;2022-07-23T06:46:49;99435.28;;;31.19;90.23
24031;BME280;12240;51.142;22.486;2022-07-23T06:49:17;99500.69;;;31.37;92.81
24031;BME280;12240;51.142;22.486;2022-07-23T06:51:45;99437.59;;;31.79;92.34
24031;BME280;12240;51.142;22.486;2022-07-23T06:54:14;99393.78;;;32.16;87.26
24031;BME280;12240;51.142;22.486;2022-07-23T06:56:42;99394.75;;;32.25;89.23
24031;BME280;12240;51.142;22.486;2022-07-23T06:59:11;99364.00;;;32.42;80.77
24031;BME280;12240;51.142;22.486;2022-07-23T07:01:39;99388.44;;;32.48;79.92
24031;BME280;12240;51.142;22.486;2022-07-23T07:04:08;99319.38;;;32.40;80.39
24031;BME280;12240;51.142;22.486;2022-07-23T07:06:36;99368.81;;;32.97;83.08
24031;BME280;12240;51.142;22.486;2022-07-23T07:09:04;99335.22;;;32.90;82.22
24031;BME280;12240;51.142;22.486;2022-07-23T07:11:33;99364.97;;;33.12;75.70
24031;BME280;12240;51.142;22.486;2022-07-23T07:14:01;99363.53;;;33.33;78.21
24031;BME280;12240;51.142;22.486;2022-07-23T07:16:30;99362.56;;;33.24;74.19
24031;BME280;12240;51.142;22.486;2022-07-23T07:18:59;99332.13;;;33.29;73.30
24031;BME280;12240;51.142;22.486;2022-07-23T07:21:30;99297.56;;;32.80;71.89
24031;BME280;12240;51.142;22.486;2022-07-23T07:23:59;99328.34;;;32.87;70.40
24031;BME280;12240;51.142;22.486;2022-07-23T07:26:27;99367.59;;;33.72;69.62
24031;BME280;12240;51.142;22.486;2022-07-23T07:28:55;99350.78;;;33.37;67.97
24031;BME280;12240;51.142;22.486;2022-07-23T07:31:24;99361.69;;;33.47;67.26
24031;BME280;12240;51.142;22.486;2022-07-23T07:33:52;99473.63;;;33.90;64.27
24031;BME280;12240;51.142;22.486;2022-07-23T07:36:20;99418.75;;;34.16;62.04
24031;BME280;12240;51.142;22.486;2022-07-23T07:38:50;99404.03;;;34.47;62.72
24031;BME280;12240;51.142;22.486;2022-07-23T07:41:18;99394.53;;;34.53;64.54
24031;BME280;12240;51.142;22.486;2022-07-23T07:43:50;99371.88;;;34.38;60.80
24031;BME280;12240;51.142;22.486;2022-07-23T07:46:19;99448.81;;;35.03;61.35
24031;BME280;12240;51.142;22.486;2022-07-23T07:48:48;99427.69;;;35.43;60.83
24031;BME280;12240;51.142;22.486;2022-07-23T07:51:23;99434.50;;;35.81;55.74
24031;BME280;12240;51.142;22.486;2022-07-23T07:53:52;99322.63;;;35.02;45.45
24031;BME280;12240;51.142;22.486;2022-07-23T07:56:22;99322.56;;;35.16;57.19
24031;BME280;12240;51.142;22.486;2022-07-23T07:58:51;99314.47;;;35.42;57.33
24031;BME280;12240;51.142;22.486;2022-07-23T08:01:20;99282.88;;;35.43;52.73
24031;BME280;12240;51.142;22.486;2022-07-23T08:03:48;99305.41;;;36.11;51.63
24031;BME280;12240;51.142;22.486;2022-07-23T08:06:17;99311.13;;;36.14;55.30
24031;BME280;12240;51.142;22.486;2022-07-23T08:08:48;99297.44;;;36.18;52.91
24031;BME280;12240;51.142;22.486;2022-07-23T08:11:16;99316.28;;;36.55;52.76
24031;BME280;12240;51.142;22.486;2022-07-23T08:13:45;99297.56;;;35.74;51.48
24031;BME280;12240;51.142;22.486;2022-07-23T08:16:13;99294.13;;;36.07;51.76
24031;BME280;12240;51.142;22.486;2022-07-23T08:18:41;99280.06;;;36.60;51.54
24031;BME280;12240;51.142;22.486;2022-07-23T08:21:10;99316.38;;;36.89;50.22
24031;BME280;12240;51.142;22.486;2022-07-23T08:23:39;99311.09;;;36.71;49.35
24031;BME280;12240;51.142;22.486;2022-07-23T08:26:08;99312.13;;;36.83;47.38
24031;BME280;12240;51.142;22.486;2022-07-23T08:28:37;99306.41;;;37.14;48.02
24031;BME280;12240;51.142;22.486;2022-07-23T08:31:05;99310.00;;;36.97;46.41
24031;BME280;12240;51.142;22.486;2022-07-23T08:33:34;99313.44;;;36.94;47.18
24031;BME280;12240;51.142;22.486;2022-07-23T08:36:07;99309.66;;;37.24;48.07
24031;BME280;12240;51.142;22.486;2022-07-23T08:38:35;99323.91;;;37.31;44.85
24031;BME280;12240;51.142;22.486;2022-07-23T08:41:04;99312.94;;;37.18;43.16
24031;BME280;12240;51.142;22.486;2022-07-23T08:43:35;99311.91;;;36.63;42.71
24031;BME280;12240;51.142;22.486;2022-07-23T08:46:04;99273.41;;;36.70;42.78
24031;BME280;12240;51.142;22.486;2022-07-23T08:48:35;99238.81;;;37.10;43.29
24031;BME280;12240;51.142;22.486;2022-07-23T08:51:07;99296.63;;;37.33;41.45
24031;BME280;12240;51.142;22.486;2022-07-23T08:53:35;99286.03;;;36.28;41.76
24031;BME280;12240;51.142;22.486;2022-07-23T08:56:06;99302.78;;;36.79;42.96
24031;BME280;12240;51.142;22.486;2022-07-23T08:58:35;99300.06;;;37.13;43.29
24031;BME280;12240;51.142;22.486;2022-07-23T09:01:06;99294.78;;;36.78;41.19
24031;BME280;12240;51.142;22.486;2022-07-23T09:03:36;99299.75;;;36.33;38.99
24031;BME280;12240;51.142;22.486;2022-07-23T09:06:06;99287.44;;;36.65;40.31
24031;BME280;12240;51.142;22.486;2022-07-23T09:08:43;99300.34;;;37.12;42.37
24031;BME280;12240;51.142;22.486;2022-07-23T09:11:19;99289.38;;;37.58;43.45
24031;BME280;12240;51.142;22.486;2022-07-23T09:13:52;99293.41;;;37.69;41.27
24031;BME280;12240;51.142;22.486;2022-07-23T09:16:29;99281.72;;;37.21;39.08
24031;BME280;12240;51.142;22.486;2022-07-23T09:19:08;99290.72;;;37.44;39.79
24031;BME280;12240;51.142;22.486;2022-07-23T09:21:39;99277.03;;;37.85;39.96
24031;BME280;12240;51.142;22.486;2022-07-23T09:24:10;99279.31;;;37.28;39.86
24031;BME280;12240;51.142;22.486;2022-07-23T09:26:47;99291.03;;;37.97;39.01
24031;BME280;12240;51.142;22.486;2022-07-23T09:29:19;99278.34;;;37.87;39.26
24031;BME280;12240;51.142;22.486;2022-07-23T09:31:54;99280.22;;;38.62;41.10
24031;BME280;12240;51.142;22.486;2022-07-23T09:34:31;99282.63;;;38.43;40.38
24031;BME280;12240;51.142;22.486;2022-07-23T09:37:12;99279.47;;;38.24;39.23
24031;BME280;12240;51.142;22.486;2022-07-23T09:39:46;99272.16;;;38.11;38.97
24031;BME280;12240;51.142;22.486;2022-07-23T09:42:24;99222.88;;;37.45;40.59
24031;BME280;12240;51.142;22.486;2022-07-23T09:44:57;99263.16;;;38.14;39.55
24031;BME280;12240;51.142;22.486;2022-07-23T09:47:33;99277.91;;;38.06;41.02
24031;BME280;12240;51.142;22.486;2022-07-23T09:50:10;99273.25;;;38.27;40.48
24031;BME280;12240;51.142;22.486;2022-07-23T09:52:49;99240.00;;;38.30;39.16
24031;BME280;12240;51.142;22.486;2022-07-23T09:55:18;99273.38;;;37.93;40.53
24031;BME280;12240;51.142;22.486;2022-07-23T09:57:47;99276.97;;;37.47;41.00
24031;BME280;12240;51.142;22.486;2022-07-23T10:00:22;99262.00;;;37.05;39.88
24031;BME280;12240;51.142;22.486;2022-07-23T10:02:52;99241.31;;;36.21;40.20
24031;BME280;12240;51.142;22.486;2022-07-23T10:05:30;99275.88;;;35.45;40.93
24031;BME280;12240;51.142;22.486;2022-07-23T10:08:03;99276.66;;;35.68;41.52
24031;BME280;12240;51.142;22.486;2022-07-23T10:10:54;99258.69;;;36.61;42.61
24031;BME280;12240;51.142;22.486;2022-07-23T10:13:43;99268.19;;;37.28;39.56
24031;BME280;12240;51.142;22.486;2022-07-23T10:16:33;99231.78;;;36.44;39.58
24031;BME280;12240;51.142;22.486;2022-07-23T10:19:01;99266.41;;;36.81;39.78
24031;BME280;12240;51.142;22.486;2022-07-23T10:22:00;99260.66;;;36.52;39.71
24031;BME280;12240;51.142;22.486;2022-07-23T10:25:08;99260.19;;;35.63;41.03
24031;BME280;12240;51.142;22.486;2022-07-23T10:34:50;99249.44;;;36.82;39.64
24031;BME280;12240;51.142;22.486;2022-07-23T10:37:42;99213.13;;;37.30;37.87
24031;BME280;12240;51.142;22.486;2022-07-23T10:40:18;99250.03;;;38.23;39.12
24031;BME280;12240;51.142;22.486;2022-07-23T10:42:52;99246.34;;;37.73;37.70
24031;BME280;12240;51.142;22.486;2022-07-23T10:45:34;99252.66;;;37.44;38.04
24031;BME280;12240;51.142;22.486;2022-07-23T10:48:23;99243.22;;;36.68;38.62
24031;BME280;12240;51.142;22.486;2022-07-23T10:51:15;99219.72;;;36.91;39.26
24031;BME280;12240;51.142;22.486;2022-07-23T10:53:57;99214.16;;;36.74;39.26
24031;BME280;12240;51.142;22.486;2022-07-23T10:59:24;99238.50;;;36.77;42.86
24031;BME280;12240;51.142;22.486;2022-07-23T11:01:52;99182.19;;;36.34;42.68
24031;BME280;12240;51.142;22.486;2022-07-23T11:04:51;99213.97;;;36.37;42.08
24031;BME280;12240;51.142;22.486;2022-07-23T11:07:20;99137.28;;;36.15;43.12
24031;BME280;12240;51.142;22.486;2022-07-23T11:09:49;99233.03;;;37.41;42.09
24031;BME280;12240;51.142;22.486;2022-07-23T11:15:14;99194.44;;;38.14;37.90
24031;BME280;12240;51.142;22.486;2022-07-23T11:27:51;99235.22;;;38.60;38.28
24031;BME280;12240;51.142;22.486;2022-07-23T11:35:44;99215.66;;;38.89;36.81
24031;BME280;12240;51.142;22.486;2022-07-23T11:38:17;99176.94;;;39.41;38.48
24031;BME280;12240;51.142;22.486;2022-07-23T11:40:56;99214.66;;;40.31;37.33
24031;BME280;12240;51.142;22.486;2022-07-23T11:43:27;99226.91;;;40.94;36.69
24031;BME280;12240;51.142;22.486;2022-07-23T11:46:00;99211.56;;;40.60;35.21
24031;BME280;12240;51.142;22.486;2022-07-23T11:48:30;99206.28;;;40.71;34.90
24031;BME280;12240;51.142;22.486;2022-07-23T11:51:06;99180.25;;;41.38;35.35
24031;BME280;12240;51.142;22.486;2022-07-23T11:53:35;99211.72;;;41.82;35.03
24031;BME280;12240;51.142;22.486;2022-07-23T11:56:10;99196.78;;;41.58;34.71
24031;BME280;12240;51.142;22.486;2022-07-23T11:58:39;99171.66;;;41.15;35.18
24031;BME280;12240;51.142;22.486;2022-07-23T12:01:21;99183.75;;;39.64;35.71
24031;BME280;12240;51.142;22.486;2022-07-23T12:03:51;99193.63;;;38.64;36.94
24031;BME280;12240;51.142;22.486;2022-07-23T12:06:19;99169.50;;;37.39;37.78
24031;BME280;12240;51.142;22.486;2022-07-23T12:08:48;99144.59;;;36.79;38.05
24031;BME280;12240;51.142;22.486;2022-07-23T12:11:16;99213.97;;;37.30;38.65
24031;BME280;12240;51.142;22.486;2022-07-23T12:13:57;99200.94;;;36.71;38.87
24031;BME280;12240;51.142;22.486;2022-07-23T12:16:25;99199.63;;;36.60;39.24
24031;BME280;12240;51.142;22.486;2022-07-23T12:18:53;99137.28;;;36.92;39.18
24031;BME280;12240;51.142;22.486;2022-07-23T12:21:22;99192.91;;;38.46;39.03
24031;BME280;12240;51.142;22.486;2022-07-23T12:23:50;99148.88;;;39.01;39.24
24031;BME280;12240;51.142;22.486;2022-07-23T12:26:18;99186.38;;;38.01;37.41
24031;BME280;12240;51.142;22.486;2022-07-23T12:28:52;99147.22;;;36.76;37.98
24031;BME280;12240;51.142;22.486;2022-07-23T12:31:28;99184.97;;;36.34;38.35
24031;BME280;12240;51.142;22.486;2022-07-23T12:33:57;99155.41;;;36.64;39.95
24031;BME280;12240;51.142;22.486;2022-07-23T12:36:39;99186.91;;;36.76;37.60
24031;BME280;12240;51.142;22.486;2022-07-23T12:39:08;99172.06;;;35.73;37.63
24031;BME280;12240;51.142;22.486;2022-07-23T12:41:53;99147.44;;;35.24;39.17
24031;BME280;12240;51.142;22.486;2022-07-23T12:44:21;99157.66;;;35.54;38.29
24031;BME280;12240;51.142;22.486;2022-07-23T12:46:53;99183.44;;;35.33;39.59
24031;BME280;12240;51.142;22.486;2022-07-23T12:49:28;99143.78;;;35.46;39.84
24031;BME280;12240;51.142;22.486;2022-07-23T12:52:17;99173.66;;;36.05;38.45
24031;BME280;12240;51.142;22.486;2022-07-23T12:54:46;99173.84;;;36.25;37.23
24031;BME280;12240;51.142;22.486;2022-07-23T12:57:16;99175.06;;;37.39;37.29
24031;BME280;12240;51.142;22.486;2022-07-23T12:59:45;99147.91;;;36.81;35.91
24031;BME280;12240;51.142;22.486;2022-07-23T13:02:14;99130.44;;;36.55;36.61
24031;BME280;12240;51.142;22.486;2022-07-23T13:04:43;99153.47;;;37.36;36.17
24031;BME280;12240;51.142;22.486;2022-07-23T13:07:13;99169.09;;;37.03;35.52
24031;BME280;12240;51.142;22.486;2022-07-23T13:09:43;99145.28;;;36.59;35.37
24031;BME280;12240;51.142;22.486;2022-07-23T13:12:11;99156.00;;;37.58;34.77
24031;BME280;12240;51.142;22.486;2022-07-23T13:14:40;99147.63;;;37.67;34.85
24031;BME280;12240;51.142;22.486;2022-07-23T13:17:09;99083.03;;;37.03;34.02
24031;BME280;12240;51.142;22.486;2022-07-23T13:19:37;99144.47;;;38.06;33.72
24031;BME280;12240;51.142;22.486;2022-07-23T13:22:05;99138.22;;;38.09;33.24
24031;BME280;12240;51.142;22.486;2022-07-23T13:24:36;99143.50;;;36.89;34.09
24031;BME280;12240;51.142;22.486;2022-07-23T13:27:06;99080.06;;;36.36;34.33
24031;BME280;12240;51.142;22.486;2022-07-23T13:29:38;99131.97;;;38.12;35.40
24031;BME280;12240;51.142;22.486;2022-07-23T13:32:06;99062.06;;;38.01;33.10
24031;BME280;12240;51.142;22.486;2022-07-23T13:34:38;99058.69;;;37.46;32.61